createdAt,value
2019-02-21T00:01:31.970Z,16.80
2019-02-21T00:03:59.902Z,17.70
2019-02-21T00:06:27.691Z,15.27
2019-02-21T00:08:55.451Z,18.80
2019-02-21T00:11:23.409Z,16.57
2019-02-21T00:13:51.135Z,17.33
2019-02-21T00:16:19.072Z,17.00
2019-02-21T00:18:46.864Z,17.30
2019-02-21T00:21:14.671Z,16.97
2019-02-21T00:23:42.422Z,18.53
2019-02-21T00:26:10.356Z,15.93
2019-02-21T00:28:38.100Z,15.57
2019-02-21T00:31:06.081Z,17.17
2019-02-21T00:33:33.952Z,19.30
2019-02-21T00:36:01.724Z,18.27
2019-02-21T00:38:29.476Z,18.60
2019-02-21T00:40:57.383Z,17.20
2019-02-21T00:43:25.098Z,18.40
2019-02-21T00:45:53.038Z,19.83
2019-02-21T00:48:20.780Z,18.47
2019-02-21T00:50:48.552Z,17.83
2019-02-21T00:53:16.340Z,18.67
2019-02-21T00:55:44.262Z,16.37
2019-02-21T00:58:11.965Z,19.40
2019-02-21T01:00:46.632Z,18.13
2019-02-21T01:03:09.336Z,17.20
2019-02-21T01:05:37.127Z,18.37
2019-02-21T01:08:05.705Z,16.50
2019-02-21T01:10:33.635Z,18.50
2019-02-21T01:13:01.382Z,21.13
2019-02-21T01:15:29.120Z,14.63
2019-02-21T01:17:57.164Z,19.03
2019-02-21T01:20:24.927Z,17.17
2019-02-21T01:22:52.863Z,18.30
2019-02-21T01:25:20.598Z,18.87
2019-02-21T01:27:48.413Z,19.87
2019-02-21T01:30:16.173Z,15.97
2019-02-21T01:32:44.123Z,18.20
2019-02-21T01:35:11.853Z,19.30
2019-02-21T01:37:39.685Z,17.13
2019-02-21T01:40:07.475Z,18.83
2019-02-21T01:42:35.424Z,15.83
2019-02-21T01:45:03.326Z,16.47
2019-02-21T01:47:31.089Z,17.07
2019-02-21T01:49:58.841Z,18.13
2019-02-21T01:52:26.626Z,17.53
2019-02-21T01:54:54.399Z,18.73
2019-02-21T01:57:22.344Z,19.23
2019-02-21T01:59:50.101Z,18.97
2019-02-21T02:02:17.861Z,19.43
2019-02-21T02:04:45.603Z,16.63
2019-02-21T02:07:13.375Z,18.87
2019-02-21T02:09:41.123Z,22.73
2019-02-21T02:12:08.896Z,16.50
2019-02-21T02:14:36.689Z,19.13
2019-02-21T02:17:04.720Z,17.73
2019-02-21T02:19:33.293Z,16.80
2019-02-21T02:22:01.220Z,17.23
2019-02-21T02:24:29.085Z,18.37
2019-02-21T02:26:57.052Z,17.60
2019-02-21T02:29:24.844Z,16.50
2019-02-21T02:31:52.744Z,18.13
2019-02-21T02:34:20.582Z,16.93
2019-02-21T02:36:48.519Z,18.50
2019-02-21T02:39:16.595Z,18.43
2019-02-21T02:41:44.525Z,18.33
2019-02-21T02:44:12.456Z,19.07
2019-02-21T02:46:40.370Z,17.73
2019-02-21T02:49:08.140Z,18.37
2019-02-21T02:51:36.055Z,15.53
2019-02-21T02:54:03.974Z,20.70
2019-02-21T02:56:31.890Z,20.87
2019-02-21T02:58:59.686Z,18.77
2019-02-21T03:01:34.698Z,16.37
2019-02-21T03:03:57.112Z,18.87
2019-02-21T03:06:24.999Z,17.53
2019-02-21T03:08:52.809Z,19.00
2019-02-21T03:11:20.511Z,17.83
2019-02-21T03:13:48.290Z,18.20
2019-02-21T03:16:16.121Z,16.47
2019-02-21T03:18:43.882Z,17.30
2019-02-21T03:21:11.607Z,22.10
2019-02-21T03:23:39.539Z,19.20
2019-02-21T03:26:07.297Z,18.13
2019-02-21T03:28:35.212Z,19.90
2019-02-21T03:31:02.971Z,17.43
2019-02-21T03:33:30.735Z,18.43
2019-02-21T03:35:58.455Z,20.93
2019-02-21T03:38:26.217Z,22.97
2019-02-21T03:40:53.950Z,18.93
2019-02-21T03:43:21.898Z,19.53
2019-02-21T03:45:49.641Z,21.43
2019-02-21T03:48:17.539Z,17.43
2019-02-21T03:50:45.303Z,19.07
2019-02-21T03:53:13.300Z,19.20
2019-02-21T03:55:41.008Z,17.50
2019-02-21T03:58:08.946Z,22.10
2019-02-21T04:00:36.730Z,21.10
2019-02-21T04:03:04.461Z,19.73
2019-02-21T04:05:32.218Z,21.13
2019-02-21T04:08:00.007Z,20.00
2019-02-21T04:10:27.815Z,18.53
2019-02-21T04:12:55.618Z,23.10
2019-02-21T04:15:23.410Z,23.07
2019-02-21T04:17:51.181Z,21.53
2019-02-21T04:20:19.223Z,21.13
2019-02-21T04:22:47.228Z,20.13
2019-02-21T04:25:14.998Z,21.53
2019-02-21T04:27:42.912Z,18.93
2019-02-21T04:30:10.764Z,22.17
2019-02-21T04:32:38.696Z,17.40
2019-02-21T04:35:06.514Z,19.90
2019-02-21T04:37:34.266Z,20.50
2019-02-21T04:40:02.044Z,19.40
2019-02-21T04:42:29.816Z,19.17
2019-02-21T04:44:57.740Z,20.40
2019-02-21T04:47:25.501Z,20.93
2019-02-21T04:49:53.322Z,18.27
2019-02-21T04:52:21.031Z,19.80
2019-02-21T04:54:49.012Z,18.70
2019-02-21T04:57:16.788Z,21.03
2019-02-21T04:59:44.698Z,19.17
2019-02-21T05:02:12.447Z,18.03
2019-02-21T05:04:40.211Z,20.57
2019-02-21T05:07:08.072Z,18.07
2019-02-21T05:09:35.871Z,19.13
2019-02-21T05:12:03.660Z,19.57
2019-02-21T05:14:31.448Z,19.57
2019-02-21T05:17:00.706Z,21.83
2019-02-21T05:19:28.566Z,20.20
2019-02-21T05:21:56.324Z,21.73
2019-02-21T05:24:24.391Z,19.67
2019-02-21T05:27:00.291Z,21.07
2019-02-21T05:29:28.067Z,18.47
2019-02-21T05:32:13.610Z,18.73
2019-02-21T05:35:04.026Z,19.87
2019-02-21T05:37:54.366Z,22.93
2019-02-21T05:40:42.175Z,18.27
2019-02-21T05:43:41.679Z,22.23
2019-02-21T05:46:34.930Z,19.67
2019-02-21T05:49:25.460Z,18.03
2019-02-21T05:52:07.579Z,18.93
2019-02-21T05:54:56.788Z,19.80
2019-02-21T05:57:52.783Z,21.87
2019-02-21T06:00:58.422Z,22.03
2019-02-21T06:04:04.021Z,18.13
2019-02-21T06:06:56.158Z,21.73
2019-02-21T06:09:45.204Z,20.13
2019-02-21T06:12:32.790Z,23.57
2019-02-21T06:14:57.103Z,24.77
2019-02-21T06:17:40.989Z,18.50
2019-02-21T06:20:40.510Z,20.17
2019-02-21T06:23:25.043Z,25.27
2019-02-21T06:26:18.288Z,21.10
2019-02-21T06:28:59.638Z,20.27
2019-02-21T06:31:27.566Z,21.33
2019-02-21T06:33:55.333Z,20.37
2019-02-21T06:36:23.324Z,20.07
2019-02-21T06:38:51.092Z,19.00
2019-02-21T06:41:18.840Z,20.87
2019-02-21T06:43:46.596Z,22.00
2019-02-21T06:46:14.425Z,24.77
2019-02-21T06:48:42.173Z,24.87
2019-02-21T06:51:09.984Z,24.00
2019-02-21T06:53:37.743Z,22.13
2019-02-21T06:56:05.563Z,22.53
2019-02-21T06:58:33.279Z,22.30
2019-02-21T07:01:01.256Z,21.57
2019-02-21T07:03:29.172Z,25.57
2019-02-21T07:05:56.991Z,22.90
2019-02-21T07:08:25.239Z,27.40
2019-02-21T07:10:53.313Z,23.03
2019-02-21T07:13:26.719Z,24.67
2019-02-21T07:15:50.793Z,21.80
2019-02-21T07:18:18.554Z,22.60
2019-02-21T07:20:46.307Z,22.20
2019-02-21T07:23:14.084Z,26.93
2019-02-21T07:25:50.722Z,21.93
2019-02-21T07:28:18.557Z,22.63
2019-02-21T07:30:46.610Z,22.47
2019-02-21T07:33:14.530Z,21.90
2019-02-21T07:35:42.263Z,20.77
2019-02-21T07:38:10.215Z,25.57
2019-02-21T07:40:37.997Z,25.27
2019-02-21T07:43:05.786Z,29.97
2019-02-21T07:45:36.254Z,26.20
2019-02-21T07:48:03.429Z,25.00
2019-02-21T07:50:31.563Z,22.00
2019-02-21T07:53:02.552Z,22.27
2019-02-21T07:55:29.169Z,26.23
2019-02-21T07:57:57.141Z,31.17
2019-02-21T08:00:24.914Z,24.97
2019-02-21T08:02:52.657Z,21.40
2019-02-21T08:05:20.448Z,24.43
2019-02-21T08:07:49.896Z,28.70
2019-02-21T08:10:17.842Z,26.23
2019-02-21T08:12:45.784Z,24.17
2019-02-21T08:15:13.834Z,23.23
2019-02-21T08:17:44.137Z,25.33
2019-02-21T08:20:12.008Z,26.50
2019-02-21T08:22:41.206Z,26.50
2019-02-21T08:25:09.344Z,26.77
2019-02-21T08:27:37.310Z,22.43
2019-02-21T08:30:07.713Z,25.73
2019-02-21T08:33:13.282Z,26.23
2019-02-21T08:35:41.176Z,28.20
2019-02-21T08:38:09.102Z,25.57
2019-02-21T08:40:36.898Z,25.07
2019-02-21T08:43:05.664Z,23.50
2019-02-21T08:45:33.444Z,27.60
2019-02-21T08:48:01.222Z,22.87
2019-02-21T08:50:29.028Z,24.20
2019-02-21T08:52:56.808Z,25.27
2019-02-21T08:55:24.572Z,26.97
2019-02-21T08:57:52.366Z,25.33
2019-02-21T09:00:20.152Z,23.17
2019-02-21T09:02:47.904Z,23.70
2019-02-21T09:05:16.011Z,25.30
2019-02-21T09:07:46.318Z,22.60
2019-02-21T09:10:13.840Z,25.40
2019-02-21T09:12:41.798Z,26.73
2019-02-21T09:15:12.907Z,22.30
2019-02-21T09:17:42.679Z,24.13
2019-02-21T09:20:10.629Z,25.10
2019-02-21T09:22:38.542Z,25.30
2019-02-21T09:25:09.268Z,26.13
2019-02-21T09:27:37.078Z,25.70
2019-02-21T09:30:08.048Z,24.93
2019-02-21T09:32:35.927Z,24.63
2019-02-21T09:35:03.767Z,22.03
2019-02-21T09:37:31.569Z,25.73
2019-02-21T09:39:59.304Z,28.53
2019-02-21T09:42:27.165Z,27.17
2019-02-21T09:44:54.939Z,21.30
2019-02-21T09:47:22.730Z,24.30
2019-02-21T09:49:50.475Z,22.00
2019-02-21T09:52:18.255Z,26.33
2019-02-21T09:54:47.459Z,22.17
2019-02-21T09:57:15.523Z,24.27
2019-02-21T09:59:43.325Z,24.10
2019-02-21T10:02:11.190Z,25.30
2019-02-21T10:04:38.979Z,25.30
2019-02-21T10:07:06.768Z,22.93
2019-02-21T10:09:34.533Z,26.47
2019-02-21T10:12:02.632Z,23.00
2019-02-21T10:14:30.566Z,24.50
2019-02-21T10:16:58.411Z,25.30
2019-02-21T10:19:26.272Z,26.33
2019-02-21T10:21:54.073Z,23.50
2019-02-21T10:24:21.906Z,21.60
2019-02-21T10:26:49.735Z,27.23
2019-02-21T10:29:18.270Z,26.03
2019-02-21T10:31:46.032Z,27.57
2019-02-21T10:34:13.822Z,24.07
2019-02-21T10:36:41.609Z,22.70
2019-02-21T10:39:10.571Z,26.00
2019-02-21T10:41:42.073Z,27.37
2019-02-21T10:44:09.911Z,24.67
2019-02-21T10:46:37.703Z,28.97
2019-02-21T10:49:05.462Z,23.60
2019-02-21T10:51:33.273Z,26.00
2019-02-21T10:54:01.069Z,23.00
2019-02-21T10:56:28.850Z,20.37
2019-02-21T10:58:56.655Z,22.50
2019-02-21T11:01:24.436Z,21.80
2019-02-21T11:03:53.179Z,22.77
2019-02-21T11:06:20.961Z,28.00
2019-02-21T11:08:48.756Z,23.83
2019-02-21T11:11:17.323Z,22.10
2019-02-21T11:13:45.145Z,21.17
2019-02-21T11:16:13.603Z,24.33
2019-02-21T11:18:41.693Z,20.40
2019-02-21T11:21:09.451Z,18.37
2019-02-21T11:23:40.651Z,19.90
2019-02-21T11:26:08.459Z,19.60
2019-02-21T11:28:36.443Z,18.77
2019-02-21T11:31:04.215Z,19.93
2019-02-21T11:33:33.420Z,20.50
2019-02-21T11:36:01.690Z,18.30
2019-02-21T11:38:29.432Z,17.97
2019-02-21T11:40:57.557Z,20.83
2019-02-21T11:43:25.348Z,17.93
2019-02-21T11:45:55.206Z,19.93
2019-02-21T11:48:22.823Z,15.93
2019-02-21T11:50:50.613Z,21.00
2019-02-21T11:53:18.365Z,20.53
2019-02-21T11:55:46.113Z,21.43
2019-02-21T11:58:13.921Z,20.20
2019-02-21T12:00:41.750Z,16.93
2019-02-21T12:03:09.815Z,19.57
2019-02-21T12:05:39.877Z,16.23
2019-02-21T12:08:09.248Z,20.07
2019-02-21T12:10:37.103Z,19.80
2019-02-21T12:13:04.878Z,20.00
2019-02-21T12:15:32.668Z,17.97
2019-02-21T12:18:00.453Z,21.50
2019-02-21T12:20:28.376Z,20.80
2019-02-21T12:22:56.251Z,17.80
2019-02-21T12:25:24.066Z,20.00
2019-02-21T12:27:51.859Z,21.87
2019-02-21T12:30:19.808Z,21.03
2019-02-21T12:32:47.698Z,20.40
2019-02-21T12:35:15.511Z,21.10
2019-02-21T12:37:43.336Z,18.80
2019-02-21T12:40:14.824Z,18.47
2019-02-21T12:42:42.631Z,19.47
2019-02-21T12:45:13.386Z,16.00
2019-02-21T12:47:51.002Z,20.43
2019-02-21T12:50:13.050Z,19.17
2019-02-21T12:52:40.837Z,17.57
2019-02-21T12:55:09.238Z,18.57
2019-02-21T12:57:37.062Z,18.47
2019-02-21T13:00:09.119Z,18.40
2019-02-21T13:02:36.966Z,18.60
2019-02-21T13:05:05.192Z,20.47
2019-02-21T13:07:32.983Z,18.87
2019-02-21T13:10:00.742Z,21.60
2019-02-21T13:12:28.602Z,17.13
2019-02-21T13:14:56.399Z,19.37
2019-02-21T13:17:24.256Z,16.43
2019-02-21T13:19:52.007Z,18.00
2019-02-21T13:22:19.937Z,19.73
2019-02-21T13:24:48.047Z,19.80
2019-02-21T13:27:15.874Z,18.47
2019-02-21T13:29:43.681Z,18.17
2019-02-21T13:32:11.468Z,18.60
2019-02-21T13:34:39.246Z,17.73
2019-02-21T13:37:07.073Z,14.93
2019-02-21T13:39:34.810Z,16.27
2019-02-21T13:42:02.591Z,17.03
2019-02-21T13:44:30.366Z,16.07
2019-02-21T13:46:58.167Z,15.47
2019-02-21T13:49:25.923Z,17.83
2019-02-21T13:51:53.735Z,13.30
2019-02-21T13:54:21.499Z,14.70
2019-02-21T13:56:49.533Z,14.83
2019-02-21T13:59:17.253Z,16.13
2019-02-21T14:01:45.038Z,11.43
2019-02-21T14:04:12.789Z,15.17
2019-02-21T14:06:40.584Z,14.20
2019-02-21T14:09:08.352Z,13.27
2019-02-21T14:11:36.282Z,11.77
2019-02-21T14:14:04.101Z,11.83
2019-02-21T14:16:31.919Z,11.33
2019-02-21T14:18:59.753Z,14.77
2019-02-21T14:21:27.520Z,12.70
2019-02-21T14:23:55.651Z,11.33
2019-02-21T14:26:23.410Z,12.37
2019-02-21T14:28:51.631Z,12.40
2019-02-21T14:31:19.472Z,15.27
2019-02-21T14:33:47.256Z,13.10
2019-02-21T14:36:18.140Z,14.87
2019-02-21T14:38:45.002Z,11.60
2019-02-21T14:41:18.529Z,11.00
2019-02-21T14:43:46.363Z,14.80
2019-02-21T14:46:14.160Z,12.53
2019-02-21T14:48:42.019Z,10.03
2019-02-21T14:51:09.833Z,12.57
2019-02-21T14:53:37.575Z,12.17
2019-02-21T14:56:05.385Z,7.57
2019-02-21T14:58:34.125Z,8.33
2019-02-21T15:01:01.877Z,8.07
2019-02-21T15:03:29.727Z,8.87
2019-02-21T15:05:58.114Z,9.97
2019-02-21T15:08:26.020Z,12.47
2019-02-21T15:10:53.859Z,12.17
2019-02-21T15:13:21.723Z,13.27
2019-02-21T15:15:49.489Z,11.67
2019-02-21T15:18:17.329Z,12.03
2019-02-21T15:20:45.120Z,9.90
2019-02-21T15:23:12.877Z,11.70
2019-02-21T15:25:40.692Z,12.53
2019-02-21T15:28:08.800Z,12.53
2019-02-21T15:30:38.943Z,12.47
2019-02-21T15:33:07.093Z,7.90
2019-02-21T15:35:34.884Z,7.60
2019-02-21T15:38:02.717Z,7.97
2019-02-21T15:40:30.482Z,10.67
2019-02-21T15:42:58.295Z,8.07
2019-02-21T15:45:26.115Z,9.97
2019-02-21T15:47:53.932Z,8.37
2019-02-21T15:50:21.829Z,8.77
2019-02-21T15:52:51.619Z,8.60
2019-02-21T15:55:19.441Z,10.90
2019-02-21T15:57:47.226Z,10.27
2019-02-21T16:00:16.420Z,8.40
2019-02-21T16:02:44.287Z,11.33
2019-02-21T16:05:12.104Z,10.23
2019-02-21T16:07:39.976Z,11.27
2019-02-21T16:10:11.061Z,11.50
2019-02-21T16:12:39.003Z,13.17
2019-02-21T16:15:08.859Z,12.00
2019-02-21T16:17:37.056Z,14.57
2019-02-21T16:20:07.481Z,15.03
2019-02-21T16:22:35.268Z,15.30
2019-02-21T16:25:03.716Z,12.17
2019-02-21T16:27:31.513Z,14.80
2019-02-21T16:29:59.308Z,14.47
2019-02-21T16:32:27.182Z,14.50
2019-02-21T16:34:54.947Z,14.33
2019-02-21T16:37:22.773Z,13.63
2019-02-21T16:39:50.594Z,13.07
2019-02-21T16:42:18.375Z,15.27
2019-02-21T16:44:46.175Z,14.03
2019-02-21T16:47:13.928Z,14.23
2019-02-21T16:49:41.798Z,16.97
2019-02-21T16:52:09.658Z,15.43
2019-02-21T16:54:37.469Z,15.67
2019-02-21T16:57:05.250Z,14.37
2019-02-21T16:59:33.189Z,15.53
2019-02-21T17:02:00.961Z,17.83
2019-02-21T17:04:28.879Z,16.57
2019-02-21T17:06:56.808Z,14.57
2019-02-21T17:09:24.617Z,15.27
2019-02-21T17:11:52.406Z,15.07
2019-02-21T17:14:20.194Z,15.37
2019-02-21T17:16:47.950Z,15.20
2019-02-21T17:19:15.925Z,15.23
2019-02-21T17:21:43.718Z,15.50
2019-02-21T17:24:11.710Z,17.17
2019-02-21T17:26:39.494Z,16.10
2019-02-21T17:29:07.314Z,17.87
2019-02-21T17:31:37.226Z,17.93
2019-02-21T17:34:04.866Z,17.67
2019-02-21T17:36:34.617Z,20.53
2019-02-21T17:39:02.650Z,19.83
2019-02-21T17:41:30.437Z,20.37
2019-02-21T17:43:58.214Z,22.03
2019-02-21T17:46:26.027Z,21.63
2019-02-21T17:48:53.800Z,21.80
2019-02-21T17:51:21.577Z,20.60
2019-02-21T17:53:49.320Z,20.37
2019-02-21T17:56:17.090Z,20.70
2019-02-21T17:58:44.851Z,20.27
2019-02-21T18:01:12.665Z,17.63
2019-02-21T18:03:40.441Z,18.50
2019-02-21T18:06:08.286Z,17.57
2019-02-21T18:08:36.077Z,17.13
2019-02-21T18:11:03.862Z,17.87
2019-02-21T18:13:31.684Z,16.93
2019-02-21T18:15:59.639Z,18.57
2019-02-21T18:18:27.399Z,19.47
2019-02-21T18:20:55.154Z,19.30
2019-02-21T18:23:22.923Z,18.10
2019-02-21T18:26:02.934Z,18.30
2019-02-21T18:28:30.671Z,19.43
2019-02-21T18:30:58.451Z,19.17
2019-02-21T18:33:26.267Z,18.03
2019-02-21T18:35:54.082Z,19.57
2019-02-21T18:38:21.856Z,21.50
2019-02-21T18:40:49.656Z,18.23
2019-02-21T18:43:17.429Z,20.37
2019-02-21T18:45:45.329Z,22.77
2019-02-21T18:48:13.065Z,19.60
2019-02-21T18:50:40.915Z,19.60
2019-02-21T18:53:08.729Z,19.67
2019-02-21T18:55:36.507Z,20.20
2019-02-21T18:58:04.300Z,21.57
2019-02-21T19:00:32.101Z,18.27
2019-02-21T19:02:59.852Z,19.77
2019-02-21T19:05:35.383Z,17.87
2019-02-21T19:08:04.183Z,20.37
2019-02-21T19:10:27.453Z,22.03
2019-02-21T19:12:55.323Z,17.20
2019-02-21T19:15:24.070Z,20.00
2019-02-21T19:17:51.842Z,20.17
2019-02-21T19:20:19.700Z,19.87
2019-02-21T19:22:48.742Z,19.27
2019-02-21T19:25:17.779Z,18.83
2019-02-21T19:27:45.811Z,20.30
2019-02-21T19:30:27.415Z,20.40
2019-02-21T19:32:55.343Z,22.53
2019-02-21T19:35:23.403Z,22.17
2019-02-21T19:37:51.185Z,22.10
2019-02-21T19:40:19.066Z,20.70
2019-02-21T19:42:46.931Z,21.63
2019-02-21T19:45:14.995Z,18.73
2019-02-21T19:47:42.844Z,20.43
2019-02-21T19:50:11.112Z,19.70
2019-02-21T19:52:38.905Z,22.23
2019-02-21T19:55:06.709Z,21.37
2019-02-21T19:57:34.499Z,23.17
2019-02-21T20:00:02.393Z,22.10
2019-02-21T20:02:30.417Z,22.00
2019-02-21T20:04:58.220Z,21.77
2019-02-21T20:07:26.057Z,22.90
2019-02-21T20:09:53.804Z,22.43
2019-02-21T20:12:21.683Z,24.23
2019-02-21T20:14:49.433Z,22.30
2019-02-21T20:17:17.366Z,23.20
2019-02-21T20:19:45.111Z,20.73
2019-02-21T20:22:13.746Z,20.60
2019-02-21T20:24:41.536Z,22.63
2019-02-21T20:27:09.402Z,24.23
2019-02-21T20:29:37.229Z,23.03
2019-02-21T20:32:05.062Z,24.23
2019-02-21T20:34:32.880Z,21.20
2019-02-21T20:37:00.632Z,22.67
2019-02-21T20:39:28.408Z,20.10
2019-02-21T20:41:56.271Z,23.17
2019-02-21T20:44:24.051Z,20.20
2019-02-21T20:46:51.788Z,21.33
2019-02-21T20:49:19.568Z,21.23
2019-02-21T20:51:47.325Z,22.97
2019-02-21T20:54:15.121Z,23.17
2019-02-21T20:56:42.940Z,21.10
2019-02-21T20:59:10.725Z,25.37
2019-02-21T21:01:38.579Z,24.13
2019-02-21T21:04:06.377Z,26.50
2019-02-21T21:06:34.130Z,25.97
2019-02-21T21:09:02.101Z,27.53
2019-02-21T21:11:29.878Z,27.27
2019-02-21T21:13:57.919Z,23.70
2019-02-21T21:16:25.661Z,27.17
2019-02-21T21:18:53.443Z,26.77
2019-02-21T21:21:21.247Z,28.03
2019-02-21T21:23:49.173Z,27.53
2019-02-21T21:26:17.051Z,26.93
2019-02-21T21:28:44.903Z,29.37
2019-02-21T21:31:15.247Z,27.33
2019-02-21T21:33:42.345Z,28.13
2019-02-21T21:36:10.150Z,29.20
2019-02-21T21:38:37.949Z,30.30
2019-02-21T21:41:05.751Z,29.93
2019-02-21T21:43:33.502Z,29.50
2019-02-21T21:46:01.277Z,32.03
2019-02-21T21:48:29.081Z,31.80
2019-02-21T21:50:56.886Z,30.20
2019-02-21T21:53:24.657Z,34.30
2019-02-21T21:55:52.461Z,33.57
2019-02-21T21:58:20.253Z,32.67
2019-02-21T22:00:48.043Z,38.53
2019-02-21T22:03:15.812Z,31.57
2019-02-21T22:05:43.640Z,35.03
2019-02-21T22:08:11.416Z,36.63
2019-02-21T22:10:39.221Z,33.63
2019-02-21T22:13:07.113Z,34.93
2019-02-21T22:15:34.931Z,34.83
2019-02-21T22:18:02.702Z,35.10
2019-02-21T22:20:30.491Z,35.73
2019-02-21T22:22:58.235Z,36.27
2019-02-21T22:25:25.997Z,36.77
2019-02-21T22:27:53.797Z,32.93
2019-02-21T22:30:21.594Z,33.70
2019-02-21T22:32:49.352Z,34.10
2019-02-21T22:35:17.087Z,34.67
2019-02-21T22:37:44.881Z,33.30
2019-02-21T22:40:12.902Z,36.00
2019-02-21T22:42:40.684Z,36.70
2019-02-21T22:45:08.844Z,35.03
2019-02-21T22:47:36.631Z,35.90
2019-02-21T22:50:06.288Z,33.50
2019-02-21T22:52:34.030Z,33.27
2019-02-21T22:55:09.797Z,36.73
2019-02-21T22:57:31.470Z,35.93
2019-02-21T22:59:59.235Z,38.03
2019-02-21T23:02:27.750Z,36.97
2019-02-21T23:05:55.526Z,38.23
2019-02-21T23:08:52.623Z,34.60
2019-02-21T23:11:20.720Z,38.10
2019-02-21T23:13:48.694Z,36.77
2019-02-21T23:16:16.693Z,37.13
2019-02-21T23:18:45.102Z,37.30
2019-02-21T23:21:13.033Z,36.60
2019-02-21T23:23:40.847Z,37.30
2019-02-21T23:26:09.916Z,39.17
2019-02-21T23:28:37.645Z,36.83
2019-02-21T23:31:05.568Z,37.43
2019-02-21T23:33:36.090Z,38.80
2019-02-21T23:36:03.926Z,36.57
2019-02-21T23:38:31.668Z,35.70
2019-02-21T23:40:59.576Z,35.20
2019-02-21T23:43:27.384Z,35.57
2019-02-21T23:45:55.125Z,35.00
2019-02-21T23:48:22.890Z,35.67
2019-02-21T23:50:50.634Z,35.13
2019-02-21T23:53:18.426Z,36.67
2019-02-21T23:55:46.186Z,33.63
2019-02-21T23:58:13.955Z,32.03
